Time;durP1;ratioP1;P1;durP2;ratioP2;P2;SDS_P1;SDS_P2;PMS_P1;PMS_P2;Temp;Humidity;BMP_temperature;BMP_pressure;BME280_temperature;BME280_humidity;BME280_pressure;Samples;Min_cycle;Max_cycle;Signal;HPM_P1;HPM_P2
2023/09/23 00:00:07;;;;;;;4.07;1.52;;;;;;;;;;5033186;28;20363;-50
2023/09/23 00:02:33;;;;;;;3.65;1.77;;;;;;;;;;5014879;28;20126;-49
2023/09/23 00:05:01;;;;;;;2.78;2.03;;;;;;;;;;5032999;28;20029;-51
2023/09/23 00:07:28;;;;;;;4.97;1.88;;;;;;;;;;5032529;28;20029;-51
2023/09/23 00:09:54;;;;;;;3.85;1.80;;;;;;;;;;5032608;28;20378;-49
2023/09/23 00:12:20;;;;;;;3.47;1.80;;;;;;;;;;5033232;28;20029;-48
2023/09/23 00:14:46;;;;;;;3.35;1.80;;;;;;;;;;5033700;28;20120;-50
2023/09/23 00:17:13;;;;;;;3.95;1.90;;;;;;;;;;5032742;28;20372;-51
2023/09/23 00:19:40;;;;;;;3.97;1.67;;;;;;;;;;5034813;28;20099;-50
2023/09/23 00:22:06;;;;;;;3.55;1.98;;;;;;;;;;5032684;28;20047;-50
2023/09/23 00:24:32;;;;;;;3.22;2.10;;;;;;;;;;5032036;28;20434;-51
2023/09/23 00:26:59;;;;;;;4.40;1.95;;;;;;;;;;5032925;28;20106;-51
2023/09/23 00:29:28;;;;;;;2.85;2.00;;;;;;;;;;5032968;28;20028;-50
2023/09/23 00:31:54;;;;;;;3.78;2.20;;;;;;;;;;5014271;28;20033;-50
2023/09/23 00:34:23;;;;;;;4.43;2.05;;;;;;;;;;5032513;28;20029;-51
2023/09/23 00:36:50;;;;;;;4.28;2.15;;;;;;;;;;5031787;28;20028;-50
2023/09/23 00:39:17;;;;;;;2.75;1.85;;;;;;;;;;5032979;28;20104;-49
2023/09/23 00:41:43;;;;;;;6.45;1.90;;;;;;;;;;5031246;28;20444;-50
2023/09/23 00:44:10;;;;;;;2.08;1.70;;;;;;;;;;5032661;28;20057;-49
2023/09/23 00:46:36;;;;;;;4.28;2.22;;;;;;;;;;5032915;28;20104;-49
2023/09/23 00:49:06;;;;;;;3.25;1.88;;;;;;;;;;5032916;28;20036;-50
2023/09/23 00:51:33;;;;;;;3.85;1.67;;;;;;;;;;5032000;28;20096;-49
2023/09/23 00:54:01;;;;;;;3.13;1.60;;;;;;;;;;5032327;28;20169;-48
2023/09/23 00:56:31;;;;;;;3.08;1.58;;;;;;;;;;5032168;28;20017;-50
2023/09/23 00:58:59;;;;;;;3.22;1.73;;;;;;;;;;5032587;28;20025;-49
2023/09/23 01:01:26;;;;;;;3.72;2.05;;;;;;;;;;5027103;28;20024;-50
2023/09/23 01:03:52;;;;;;;3.70;1.75;;;;;;;;;;5029723;28;20032;-50
2023/09/23 01:06:21;;;;;;;5.72;1.70;;;;;;;;;;5013428;28;20022;-52
2023/09/23 01:08:50;;;;;;;4.97;2.10;;;;;;;;;;5030767;28;20032;-50
2023/09/23 01:11:17;;;;;;;4.20;1.83;;;;;;;;;;5030335;28;20442;-52
2023/09/23 01:13:44;;;;;;;3.55;1.95;;;;;;;;;;5018305;28;20029;-50
2023/09/23 01:16:14;;;;;;;3.08;1.58;;;;;;;;;;5030630;28;20017;-49
2023/09/23 01:18:40;;;;;;;2.15;1.70;;;;;;;;;;5013161;28;20037;-51
2023/09/23 01:21:08;;;;;;;4.38;2.03;;;;;;;;;;5030295;28;20041;-50
2023/09/23 01:23:36;;;;;;;8.02;2.00;;;;;;;;;;5030164;28;20049;-50
2023/09/23 01:26:03;;;;;;;4.18;2.20;;;;;;;;;;5028752;28;20139;-50
2023/09/23 01:28:32;;;;;;;4.03;1.88;;;;;;;;;;5033166;28;20053;-52
2023/09/23 01:30:59;;;;;;;8.27;2.00;;;;;;;;;;5028607;28;20165;-48
2023/09/23 01:33:26;;;;;;;4.18;1.80;;;;;;;;;;5030569;28;20044;-53
2023/09/23 01:35:57;;;;;;;5.18;2.08;;;;;;;;;;5031705;28;20032;-54
2023/09/23 01:38:23;;;;;;;4.63;2.00;;;;;;;;;;5031428;28;20025;-55
2023/09/23 01:40:49;;;;;;;8.30;2.40;;;;;;;;;;5031217;28;20028;-54
2023/09/23 01:43:15;;;;;;;4.57;2.20;;;;;;;;;;5010263;28;20545;-50
2023/09/23 01:45:41;;;;;;;2.78;1.50;;;;;;;;;;5031924;28;20035;-51
2023/09/23 01:48:07;;;;;;;5.82;1.58;;;;;;;;;;5034099;28;20056;-49
2023/09/23 01:50:33;;;;;;;5.72;2.30;;;;;;;;;;5035280;28;20468;-51
2023/09/23 01:53:00;;;;;;;3.60;1.58;;;;;;;;;;5036840;28;20435;-49
2023/09/23 01:55:27;;;;;;;4.18;1.52;;;;;;;;;;5017409;28;20124;-49
2023/09/23 01:57:53;;;;;;;6.55;2.58;;;;;;;;;;5035206;28;20175;-50
2023/09/23 02:00:24;;;;;;;4.40;2.40;;;;;;;;;;5035260;28;20018;-51
2023/09/23 02:02:56;;;;;;;5.05;2.83;;;;;;;;;;5034912;28;20109;-51
2023/09/23 02:05:27;;;;;;;3.60;1.85;;;;;;;;;;5029607;28;20036;-51
2023/09/23 02:07:53;;;;;;;4.13;1.50;;;;;;;;;;5027236;28;20026;-49
2023/09/23 02:10:21;;;;;;;3.47;1.25;;;;;;;;;;5024846;28;20508;-50
2023/09/23 02:12:47;;;;;;;2.60;0.93;;;;;;;;;;5034471;28;20117;-51
2023/09/23 02:15:14;;;;;;;3.38;1.33;;;;;;;;;;5035243;28;20025;-50
2023/09/23 02:17:40;;;;;;;4.35;1.17;;;;;;;;;;5035181;28;20025;-49
2023/09/23 02:20:10;;;;;;;6.00;1.27;;;;;;;;;;5033836;28;20452;-51
2023/09/23 02:22:37;;;;;;;3.58;1.20;;;;;;;;;;5034494;28;20337;-50
2023/09/23 02:25:07;;;;;;;2.55;1.38;;;;;;;;;;5035171;28;20029;-49
2023/09/23 02:27:34;;;;;;;4.15;1.05;;;;;;;;;;5034638;28;20029;-49
2023/09/23 02:30:02;;;;;;;5.30;1.30;;;;;;;;;;5034937;28;20075;-49
2023/09/23 02:32:28;;;;;;;2.60;0.73;;;;;;;;;;5034644;28;20112;-49
2023/09/23 02:34:55;;;;;;;4.32;1.30;;;;;;;;;;5050058;28;20025;-49
2023/09/23 02:37:21;;;;;;;3.47;0.80;;;;;;;;;;5034884;28;20495;-51
2023/09/23 02:39:47;;;;;;;2.35;0.93;;;;;;;;;;5034448;28;20029;-52
2023/09/23 02:42:13;;;;;;;2.28;0.70;;;;;;;;;;5036016;28;20049;-51
2023/09/23 02:44:40;;;;;;;4.15;0.63;;;;;;;;;;5034805;28;20032;-49
2023/09/23 02:47:06;;;;;;;1.58;0.75;;;;;;;;;;5034727;28;20033;-50
2023/09/23 02:49:33;;;;;;;4.78;0.68;;;;;;;;;;5016426;28;20052;-49
2023/09/23 02:51:59;;;;;;;2.15;0.70;;;;;;;;;;5016370;28;20131;-50
2023/09/23 02:54:26;;;;;;;3.20;0.65;;;;;;;;;;5034373;28;20037;-50
2023/09/23 02:56:52;;;;;;;2.13;0.50;;;;;;;;;;5033786;28;20033;-48
2023/09/23 02:59:26;;;;;;;0.75;0.60;;;;;;;;;;5033084;28;20025;-50
2023/09/23 03:01:53;;;;;;;1.27;0.70;;;;;;;;;;5030180;28;20029;-49
2023/09/23 03:04:23;;;;;;;2.85;1.00;;;;;;;;;;5034170;28;20395;-49
2023/09/23 03:06:50;;;;;;;1.30;0.85;;;;;;;;;;5034384;28;20105;-50
2023/09/23 03:09:20;;;;;;;0.75;0.30;;;;;;;;;;5033629;28;20021;-49
2023/09/23 03:11:56;;;;;;;0.47;0.30;;;;;;;;;;5027210;28;20041;-50
2023/09/23 03:14:28;;;;;;;0.77;0.30;;;;;;;;;;5011834;28;20056;-48
2023/09/23 03:16:57;;;;;;;0.70;0.30;;;;;;;;;;5033676;28;20025;-49
2023/09/23 03:19:26;;;;;;;0.95;0.20;;;;;;;;;;5033468;28;20455;-49
2023/09/23 03:21:55;;;;;;;2.78;0.30;;;;;;;;;;5033776;28;20502;-48
2023/09/23 03:24:21;;;;;;;0.80;0.38;;;;;;;;;;5032876;28;20028;-49
2023/09/23 03:26:47;;;;;;;0.85;0.30;;;;;;;;;;5033372;28;20045;-50
2023/09/23 03:29:14;;;;;;;1.40;0.25;;;;;;;;;;5033810;28;20024;-49
2023/09/23 03:31:40;;;;;;;1.00;0.50;;;;;;;;;;5033749;28;20383;-50
2023/09/23 03:34:07;;;;;;;0.20;0.20;;;;;;;;;;5033188;28;20029;-49
2023/09/23 03:45:44;;;;;;;0.47;0.38;;;;;;;;;;5032829;28;20071;-51
2023/09/23 03:48:13;;;;;;;0.65;0.28;;;;;;;;;;5038238;28;20446;-49
2023/09/23 03:50:39;;;;;;;0.20;0.20;;;;;;;;;;5032635;28;20029;-50
2023/09/23 03:53:05;;;;;;;0.20;0.20;;;;;;;;;;5033209;28;20025;-50
2023/09/23 03:55:31;;;;;;;0.40;0.25;;;;;;;;;;5015363;28;20337;-49
2023/09/23 03:57:58;;;;;;;0.50;0.20;;;;;;;;;;5033212;28;20108;-48
2023/09/23 04:00:27;;;;;;;3.05;0.52;;;;;;;;;;5032136;28;20420;-51
2023/09/23 04:02:54;;;;;;;0.47;0.20;;;;;;;;;;5031406;28;20041;-49
2023/09/23 04:05:21;;;;;;;0.35;0.20;;;;;;;;;;5033118;28;20033;-49
2023/09/23 04:07:50;;;;;;;2.63;0.40;;;;;;;;;;5035394;28;20029;-49
2023/09/23 04:10:23;;;;;;;0.25;0.20;;;;;;;;;;5035977;28;20214;-49
2023/09/23 04:12:49;;;;;;;0.28;0.20;;;;;;;;;;5031949;28;20026;-50
2023/09/23 04:15:15;;;;;;;1.13;0.20;;;;;;;;;;5032280;28;20040;-50
2023/09/23 04:17:41;;;;;;;1.25;0.30;;;;;;;;;;5021383;28;20028;-49
2023/09/23 04:20:12;;;;;;;0.98;0.43;;;;;;;;;;5032401;28;20087;-52
2023/09/23 04:22:38;;;;;;;0.82;0.20;;;;;;;;;;5032937;28;20069;-50
2023/09/23 04:28:40;;;;;;;1.17;0.40;;;;;;;;;;5020803;28;20545;-49
2023/09/23 04:31:06;;;;;;;1.23;0.43;;;;;;;;;;5039186;28;20045;-49
2023/09/23 04:33:32;;;;;;;0.75;0.40;;;;;;;;;;5036466;28;20029;-49
2023/09/23 04:35:58;;;;;;;0.50;0.30;;;;;;;;;;5032430;28;20025;-49
2023/09/23 04:38:25;;;;;;;0.20;0.10;;;;;;;;;;5037838;28;20029;-51
2023/09/23 04:40:52;;;;;;;0.90;0.20;;;;;;;;;;5032335;28;20420;-50
2023/09/23 04:43:19;;;;;;;0.20;0.20;;;;;;;;;;5031760;28;20122;-49
2023/09/23 04:45:45;;;;;;;0.80;0.30;;;;;;;;;;5031576;28;20020;-51
2023/09/23 04:48:11;;;;;;;0.25;0.25;;;;;;;;;;5031846;28;20122;-49
2023/09/23 04:50:39;;;;;;;1.35;0.30;;;;;;;;;;5032282;28;20039;-49
2023/09/23 04:53:07;;;;;;;1.27;0.28;;;;;;;;;;5032082;28;20044;-50
2023/09/23 04:55:33;;;;;;;0.75;0.25;;;;;;;;;;5031705;28;20025;-49
2023/09/23 04:57:59;;;;;;;0.85;0.30;;;;;;;;;;5031388;28;20036;-49
2023/09/23 05:00:26;;;;;;;1.35;0.30;;;;;;;;;;5031950;28;20028;-49
2023/09/23 05:02:52;;;;;;;2.20;0.30;;;39.20;99.90;;;;;;5035074;28;20043;-50
2023/09/23 05:05:18;;;;;;;2.08;0.80;;;36.30;99.90;;;;;;5018548;28;20033;-49
2023/09/23 05:07:45;;;;;;;1.17;0.28;;;36.00;99.90;;;;;;5033813;28;20025;-50
2023/09/23 05:10:12;;;;;;;1.95;0.20;;;36.00;99.90;;;;;;5031924;28;20025;-49
2023/09/23 05:12:40;;;;;;;0.50;0.20;;;35.90;99.90;;;;;;5030757;28;20061;-48
2023/09/23 05:15:07;;;;;;;1.02;0.28;;;35.90;99.90;;;;;;5027733;28;20096;-49
2023/09/23 05:17:35;;;;;;;0.52;0.32;;;;;;;;;;5029050;28;20033;-49
2023/09/23 05:20:10;;;;;;;1.95;0.35;;;;;;;;;;5037840;28;20386;-49
2023/09/23 05:22:38;;;;;;;0.60;0.30;;;;;;;;;;5009291;28;20087;-49
2023/09/23 05:25:05;;;;;;;0.50;0.38;;;;;;;;;;5010113;28;20224;-49
2023/09/23 05:27:32;;;;;;;1.70;0.40;;;;;;;;;;5007687;28;20038;-51
2023/09/23 05:29:58;;;;;;;3.60;0.20;;;;;;;;;;5011485;28;20465;-50
2023/09/23 05:32:24;;;;;;;1.50;0.45;;;;;;;;;;5010129;28;20391;-50
2023/09/23 05:34:52;;;;;;;1.42;0.25;;;;;;;;;;5017931;28;20029;-50
2023/09/23 05:37:18;;;;;;;1.55;0.60;;;;;;;;;;5010690;28;20161;-49
2023/09/23 05:39:45;;;;;;;0.77;0.30;;;;;;;;;;4994217;28;20121;-49
2023/09/23 05:42:13;;;;;;;0.77;0.22;;;;;;;;;;5012486;28;20041;-48
2023/09/23 05:44:39;;;;;;;1.77;0.40;;;;;;;;;;5011915;28;20029;-49
2023/09/23 05:47:05;;;;;;;1.95;0.50;;;;;;;;;;5012792;28;20022;-49
2023/09/23 05:49:31;;;;;;;1.30;0.30;;;;;;;;;;5011450;28;20029;-51
2023/09/23 05:51:57;;;;;;;0.52;0.30;;;;;;;;;;5011428;28;20045;-50
2023/09/23 05:54:23;;;;;;;2.90;0.57;;;;;;;;;;5012377;28;20384;-48
2023/09/23 05:56:52;;;;;;;3.97;0.75;;;;;;;;;;5013360;28;20034;-49
2023/09/23 05:59:18;;;;;;;0.20;0.20;;;;;;;;;;5011040;28;20084;-50
2023/09/23 06:01:44;;;;;;;0.65;0.40;;;;;;;;;;5010608;28;20022;-49
2023/09/23 06:04:10;;;;;;;3.72;0.47;;;;;;;;;;5011130;28;20045;-49
2023/09/23 06:06:39;;;;;;;3.05;0.30;;;;;;;;;;5010897;28;20022;-50
2023/09/23 06:09:06;;;;;;;0.93;0.20;;;;;;;;;;5011736;28;20560;-49
2023/09/23 06:11:32;;;;;;;3.25;0.30;;;;;;;;;;5009574;28;20065;-52
2023/09/23 06:13:58;;;;;;;0.45;0.30;;;;;;;;;;5007486;28;20212;-49
2023/09/23 06:16:24;;;;;;;1.25;0.63;;;;;;;;;;5011421;28;20428;-51
2023/09/23 06:18:51;;;;;;;3.42;0.35;;;;;;;;;;5011613;28;20364;-49
2023/09/23 06:21:17;;;;;;;1.70;0.30;;;;;;;;;;5020508;28;20045;-49
2023/09/23 06:23:43;;;;;;;0.82;0.40;;;;;;;;;;5030373;28;20029;-50
2023/09/23 06:26:10;;;;;;;2.42;0.45;;;;;;;;;;5031335;28;20053;-49
2023/09/23 06:28:36;;;;;;;1.35;0.50;;;;;;;;;;5030037;28;20033;-50
2023/09/23 06:31:03;;;;;;;2.20;0.22;;;;;;;;;;5030904;28;20025;-49
2023/09/23 06:33:29;;;;;;;0.90;0.40;;;;;;;;;;5030152;28;20467;-49
2023/09/23 06:35:55;;;;;;;2.40;0.50;;;;;;;;;;5033567;28;20052;-48
2023/09/23 06:38:21;;;;;;;3.05;0.45;;;;;;;;;;5034127;28;20029;-49
2023/09/23 06:40:48;;;;;;;1.25;0.43;;;;;;;;;;5034094;28;20037;-50
2023/09/23 06:43:14;;;;;;;1.83;0.70;;;;;;;;;;5035531;28;20048;-50
2023/09/23 06:45:40;;;;;;;2.55;0.50;;;;;;;;;;5031861;28;20029;-49
2023/09/23 06:48:06;;;;;;;1.30;0.75;;;;;;;;;;5033921;28;20107;-50
2023/09/23 06:50:32;;;;;;;1.90;0.35;;;;;;;;;;5034635;28;20159;-48
2023/09/23 06:52:58;;;;;;;1.75;0.22;;;;;;;;;;5030467;28;20037;-48
2023/09/23 06:55:24;;;;;;;1.13;0.30;;;;;;;;;;5029430;28;20055;-48
2023/09/23 06:57:50;;;;;;;4.60;0.50;;;;;;;;;;5033375;28;20093;-49
2023/09/23 07:00:16;;;;;;;1.23;0.30;;;;;;;;;;5033661;28;20022;-50
2023/09/23 07:02:42;;;;;;;1.42;0.40;;;;;;;;;;5033631;28;20133;-49
2023/09/23 07:05:09;;;;;;;1.25;0.47;;;;;;;;;;5034042;28;20021;-50
2023/09/23 07:07:35;;;;;;;3.08;1.05;;;;;;;;;;5015634;28;20025;-51
2023/09/23 07:10:01;;;;;;;2.60;1.10;;;;;;;;;;5033872;28;20022;-52
2023/09/23 07:12:28;;;;;;;3.97;1.30;;;;;;;;;;5034112;28;20053;-51
2023/09/23 07:14:54;;;;;;;5.30;0.93;;;;;;;;;;5034055;28;20375;-50
2023/09/23 07:17:21;;;;;;;3.20;1.20;;;;;;;;;;5033731;28;20033;-51
2023/09/23 07:19:47;;;;;;;2.55;0.70;;;;;;;;;;5033318;28;20472;-52
2023/09/23 07:22:13;;;;;;;2.05;0.77;;;;;;;;;;5033453;28;20053;-50
2023/09/23 07:24:39;;;;;;;2.47;0.80;;;;;;;;;;5034148;28;20030;-52
2023/09/23 07:27:05;;;;;;;1.67;1.02;;;;;;;;;;5033293;28;20029;-49
2023/09/23 07:29:35;;;;;;;1.17;0.90;;;;;;;;;;5031369;28;20037;-49
2023/09/23 07:32:01;;;;;;;3.03;1.00;;;;;;;;;;5031266;28;20479;-50
2023/09/23 07:34:27;;;;;;;1.95;0.70;;;;;;;;;;5033747;28;20028;-50
2023/09/23 07:36:53;;;;;;;0.95;0.68;;;;;;;;;;5015698;28;20112;-50
2023/09/23 07:39:19;;;;;;;1.60;0.60;;;;;;;;;;5033343;28;20029;-70
2023/09/23 07:41:45;;;;;;;2.42;0.80;;;;;;;;;;5032463;28;20032;-66
2023/09/23 07:44:11;;;;;;;3.58;1.13;;;;;;;;;;5015069;28;20029;-63
2023/09/23 07:46:37;;;;;;;4.13;1.00;;;;;;;;;;5033534;28;20026;-69
2023/09/23 07:49:03;;;;;;;2.40;1.00;;;;;;;;;;5037561;28;20029;-65
2023/09/23 07:51:30;;;;;;;1.88;0.80;;;;;;;;;;5031220;28;20022;-62
2023/09/23 07:53:56;;;;;;;3.08;0.95;;;;;;;;;;5036382;28;20029;-61
2023/09/23 07:56:22;;;;;;;2.63;0.98;;;;;;;;;;5015190;28;20037;-61
2023/09/23 07:58:48;;;;;;;4.00;0.95;;;;;;;;;;5032029;28;20099;-61
2023/09/23 08:01:14;;;;;;;5.35;1.50;;;;;;;;;;5031406;28;20025;-60
2023/09/23 08:03:40;;;;;;;1.20;0.88;;;;;;;;;;5030185;28;20041;-61
2023/09/23 08:06:06;;;;;;;2.90;1.23;;;;;;;;;;5032506;28;20471;-59
2023/09/23 08:08:32;;;;;;;3.22;0.95;;;;;;;;;;5032811;28;20108;-58
2023/09/23 08:10:58;;;;;;;4.93;1.30;;;;;;;;;;5030953;28;20053;-59
2023/09/23 08:13:26;;;;;;;3.45;1.15;;;;;;;;;;5029920;28;20067;-59
2023/09/23 08:15:57;;;;;;;2.88;1.13;;;;;;;;;;5028766;28;20022;-59
2023/09/23 08:18:23;;;;;;;2.88;0.80;;;;;;;;;;5028276;28;20033;-59
2023/09/23 08:20:56;;;;;;;4.15;1.23;;;;;;;;;;5030329;28;20442;-59
2023/09/23 08:23:22;;;;;;;3.80;1.80;;;;;;;;;;5032114;28;20045;-59
2023/09/23 08:25:48;;;;;;;4.22;1.30;;;;;;;;;;5044615;28;20482;-59
2023/09/23 08:28:15;;;;;;;4.53;2.00;;;;;;;;;;5025607;28;20033;-59
2023/09/23 08:30:44;;;;;;;3.28;1.85;;;;;;;;;;5031403;28;20383;-59
2023/09/23 08:33:12;;;;;;;4.43;1.83;;;;;;;;;;5030433;28;20040;-59
2023/09/23 08:35:38;;;;;;;9.23;3.08;;;;;;;;;;5029859;28;20036;-61
2023/09/23 08:38:04;;;;;;;9.32;2.35;;;;;;;;;;5026164;28;20080;-61
2023/09/23 08:40:33;;;;;;;9.80;1.92;;;;;;;;;;5031798;28;20414;-61
2023/09/23 08:43:01;;;;;;;6.93;2.78;;;;;;;;;;5031396;28;20395;-49
2023/09/23 08:45:28;;;;;;;4.20;1.60;;;;;;;;;;5024576;28;20518;-59
2023/09/23 08:47:54;;;;;;;4.07;1.50;;;;;;;;;;5029381;28;20467;-59
2023/09/23 08:50:21;;;;;;;6.22;2.25;;;;;;;;;;5032223;28;20137;-59
2023/09/23 08:52:47;;;;;;;7.05;2.20;;;;;;;;;;5014241;28;20055;-61
2023/09/23 08:55:15;;;;;;;5.35;2.30;;;;;;;;;;5027595;28;20477;-60
2023/09/23 08:57:41;;;;;;;4.10;1.90;;;;;;;;;;5023249;28;20036;-60
2023/09/23 09:00:08;;;;;;;3.75;1.65;;;;;;;;;;5029827;28;20038;-54
2023/09/23 09:02:35;;;;;;;6.60;2.28;;;;;;;;;;5029952;28;20033;-60
2023/09/23 09:05:01;;;;;;;8.18;2.10;;;;;;;;;;5031169;28;20032;-59
2023/09/23 09:07:33;;;;;;;5.05;2.00;;;;;;;;;;5019898;28;20021;-59
2023/09/23 09:10:00;;;;;;;7.03;2.47;;;;;;;;;;5037024;28;20037;-58
2023/09/23 09:12:26;;;;;;;7.22;2.38;;;;;;;;;;5031136;28;20026;-58
2023/09/23 09:15:01;;;;;;;6.43;1.67;;;;;;;;;;5014427;28;20033;-58
2023/09/23 09:17:27;;;;;;;5.72;1.42;;;;;;;;;;5030136;28;20374;-59
2023/09/23 09:19:53;;;;;;;3.30;1.83;;;;;;;;;;5030715;28;20030;-62
2023/09/23 09:22:19;;;;;;;8.20;2.15;;;;;;;;;;5043960;28;20057;-59
2023/09/23 09:24:49;;;;;;;6.40;2.28;;;;;;;;;;5044153;28;20029;-61
2023/09/23 09:27:15;;;;;;;4.95;1.88;;;;;;;;;;5012860;28;20472;-62
2023/09/23 09:29:42;;;;;;;5.80;2.00;;;;;;;;;;5025753;28;20163;-62
2023/09/23 09:32:10;;;;;;;3.90;1.58;;;;;;;;;;5023960;28;20044;-62
2023/09/23 09:34:42;;;;;;;7.20;2.22;;;;;;;;;;5026215;28;20055;-62
2023/09/23 09:37:11;;;;;;;4.97;1.80;;;;;;;;;;5027644;28;20084;-62
2023/09/23 09:39:39;;;;;;;5.88;2.10;;;;;;;;;;5029849;28;20026;-56
2023/09/23 09:42:06;;;;;;;7.50;1.95;;;;;;;;;;5028296;28;20025;-65
2023/09/23 09:44:34;;;;;;;3.58;1.73;;;;;;;;;;5021790;28;20076;-69
2023/09/23 09:47:01;;;;;;;4.15;1.42;;;;;;;;;;5022631;28;20030;-69
2023/09/23 09:49:27;;;;;;;5.90;1.60;;;;;;;;;;5023736;28;20056;-65
2023/09/23 09:51:53;;;;;;;5.72;1.50;;;;;;;;;;5029955;28;20025;-60
2023/09/23 09:54:25;;;;;;;6.80;1.67;;;;;;;;;;5030644;28;20513;-63
2023/09/23 09:56:53;;;;;;;4.43;1.90;;;;;;;;;;5027900;28;20029;-65
2023/09/23 09:59:33;;;;;;;7.53;2.40;;;;;;;;;;5030076;28;20061;-66
2023/09/23 10:02:00;;;;;;;5.78;1.83;;;;;;;;;;5024685;28;20030;-67
2023/09/23 10:04:32;;;;;;;6.32;2.08;;;;;;;;;;5025568;28;20038;-66
2023/09/23 10:06:58;;;;;;;5.72;2.03;;;;;;;;;;5030505;28;20505;-63
2023/09/23 10:09:32;;;;;;;5.97;2.00;;;;;;;;;;5033735;28;20094;-70
2023/09/23 10:11:59;;;;;;;7.13;1.70;;;;;;;;;;5017894;28;20030;-66
2023/09/23 10:14:28;;;;;;;7.28;2.10;;;;;;;;;;5026541;28;20487;-66
2023/09/23 10:17:02;;;;;;;8.25;2.25;;;;;;;;;;5031775;28;20487;-69
2023/09/23 10:19:29;;;;;;;4.07;2.15;;;;;;;;;;5031374;28;20033;-60
2023/09/23 10:22:05;;;;;;;4.97;1.98;;;;;;;;;;5031714;28;20037;-60
2023/09/23 10:24:34;;;;;;;4.95;1.85;;;;;;;;;;5045773;28;20033;-61
2023/09/23 10:27:09;;;;;;;11.52;3.75;;;;;;;;;;5027387;28;20032;-59
2023/09/23 10:29:42;;;;;;;9.73;3.00;;;;;;;;;;5030134;28;20073;-59
2023/09/23 10:32:14;;;;;;;9.40;3.28;;;;;;;;;;5031688;28;20029;-59
2023/09/23 10:34:50;;;;;;;5.80;1.92;;;;;;;;;;5030842;28;20148;-59
2023/09/23 10:37:26;;;;;;;6.20;2.80;;;;;;;;;;5030850;28;20041;-59
2023/09/23 10:39:52;;;;;;;7.15;2.55;;;;;;;;;;5032928;28;20483;-59
2023/09/23 10:42:18;;;;;;;7.57;2.97;;;;;;;;;;5016240;28;20041;-59
2023/09/23 10:44:47;;;;;;;4.53;1.73;;;;;;;;;;5024394;28;20553;-59
2023/09/23 10:47:14;;;;;;;6.00;1.98;;;;;;;;;;5030539;28;20025;-59
2023/09/23 10:49:40;;;;;;;9.88;2.60;;;;;;;;;;5011253;28;20022;-59
2023/09/23 10:52:06;;;;;;;5.32;1.98;;;;;;;;;;5033491;28;20108;-59
2023/09/23 10:54:34;;;;;;;7.20;2.80;;;;;;;;;;5033793;28;20026;-58
2023/09/23 10:57:01;;;;;;;5.68;3.05;;;;;;;;;;5032821;28;20036;-59
2023/09/23 10:59:27;;;;;;;7.85;2.88;;;;;;;;;;5011562;28;20026;-58
2023/09/23 11:01:57;;;;;;;4.85;2.53;;;;;;;;;;5031574;28;20494;-59
2023/09/23 11:04:26;;;;;;;17.88;3.60;;;;;;;;;;5028434;28;20041;-61
2023/09/23 11:06:52;;;;;;;6.22;2.85;;;;;;;;;;5032093;28;20116;-59
2023/09/23 11:09:21;;;;;;;10.45;3.40;;;;;;;;;;5030765;28;20041;-61
2023/09/23 11:11:47;;;;;;;7.82;2.97;;;;;;;;;;5031515;28;20037;-60
2023/09/23 11:14:13;;;;;;;7.50;3.55;;;;;;;;;;5015792;28;20022;-60
2023/09/23 11:16:43;;;;;;;8.00;2.83;;;;;;;;;;5031736;28;20767;-61
2023/09/23 11:19:09;;;;;;;7.47;2.75;;;;;;;;;;5032280;28;20483;-64
2023/09/23 11:21:47;;;;;;;7.63;3.47;;;;;;;;;;5032376;28;20072;-59
2023/09/23 11:24:13;;;;;;;9.88;3.38;;;;;;;;;;5028298;28;20116;-62
2023/09/23 11:26:40;;;;;;;6.57;3.25;;;;;;;;;;5030264;28;20103;-63
2023/09/23 11:29:07;;;;;;;4.97;2.85;;;;;;;;;;5032431;28;20371;-64
2023/09/23 11:31:33;;;;;;;8.43;3.78;;;;;;;;;;5032854;28;20083;-61
2023/09/23 11:33:59;;;;;;;7.38;3.60;;;;;;;;;;5030888;28;20030;-59
2023/09/23 11:36:25;;;;;;;8.07;3.20;;;;;;;;;;5036405;28;20541;-61
2023/09/23 11:38:51;;;;;;;4.95;2.22;;;;;;;;;;5032115;28;20083;-69
2023/09/23 11:41:17;;;;;;;8.98;2.35;;;;;;;;;;5033499;28;20091;-66
2023/09/23 11:43:44;;;;;;;2.03;0.88;;;;;;;;;;5032520;28;20188;-67
2023/09/23 11:46:11;;;;;;;2.83;0.98;;;;;;;;;;5035225;28;20021;-67
2023/09/23 11:48:38;;;;;;;1.85;0.88;;;;;;;;;;5014090;28;20037;-67
2023/09/23 11:51:04;;;;;;;1.73;0.90;;;;;;;;;;5030807;28;20018;-67
2023/09/23 11:53:30;;;;;;;2.28;0.77;;;;;;;;;;5035808;28;20029;-67
2023/09/23 11:55:56;;;;;;;4.07;1.00;;;;;;;;;;5028874;28;20052;-67
2023/09/23 11:58:23;;;;;;;3.53;0.90;;;;;;;;;;5032695;28;20483;-68
2023/09/23 12:00:49;;;;;;;5.50;1.88;;;;;;;;;;5032472;28;20472;-68
2023/09/23 12:03:15;;;;;;;4.32;1.40;;;;;;;;;;5029566;28;20061;-67
2023/09/23 12:05:41;;;;;;;4.20;1.55;;;;;;;;;;5037997;28;20498;-68
2023/09/23 12:08:09;;;;;;;3.88;1.63;;;;;;;;;;5032041;28;20039;-68
2023/09/23 12:10:35;;;;;;;2.70;0.95;;;;;;;;;;5014938;28;20428;-68
2023/09/23 12:13:06;;;;;;;2.08;1.05;;;;;;;;;;5032158;28;20091;-67
2023/09/23 12:15:33;;;;;;;1.10;0.73;;;;;;;;;;5030153;28;20080;-67
2023/09/23 12:18:00;;;;;;;4.97;1.00;;;;;;;;;;5015260;28;20068;-67
2023/09/23 12:20:26;;;;;;;3.67;1.63;;;;;;;;;;5029811;28;20018;-67
2023/09/23 12:22:52;;;;;;;4.78;1.25;;;;;;;;;;5032780;28;20049;-67
2023/09/23 12:25:19;;;;;;;3.72;1.42;;;;;;;;;;5011549;28;20033;-61
2023/09/23 12:27:46;;;;;;;3.78;1.95;;;;;;;;;;5031772;28;20060;-61
2023/09/23 12:30:17;;;;;;;5.15;2.28;;;;;;;;;;5030567;28;20038;-62
2023/09/23 12:32:43;;;;;;;16.98;5.30;;;;;;;;;;5026616;28;20026;-60
2023/09/23 12:35:09;;;;;;;;;;;;;;;;;;5031505;28;20372;-60
2023/09/23 12:37:35;;;;;;;7.78;2.97;;;;;;;;;;5030998;28;19964;-61
2023/09/23 12:40:04;;;;;;;4.10;2.00;;;;;;;;;;5031307;28;20033;-60
2023/09/23 12:42:30;;;;;;;6.30;2.00;;;;;;;;;;5024296;28;20132;-63
2023/09/23 12:44:56;;;;;;;5.03;1.92;;;;;;;;;;5021471;28;20029;-63
2023/09/23 12:47:22;;;;;;;5.65;1.85;;;;;;;;;;5029026;28;20091;-63
2023/09/23 12:49:49;;;;;;;6.65;2.00;;;;;;;;;;5027735;28;20053;-62
2023/09/23 12:52:18;;;;;;;4.40;1.40;;;;;;;;;;5027504;28;20506;-63
2023/09/23 12:54:45;;;;;;;6.57;1.65;;;;;;;;;;5029784;28;20041;-66
2023/09/23 12:57:11;;;;;;;3.33;1.25;;;;;;;;;;5030177;28;20029;-65
2023/09/23 12:59:38;;;;;;;2.55;1.35;;;;;;;;;;5032877;28;20056;-69
2023/09/23 13:02:04;;;;;;;3.35;2.00;;;;;;;;;;5042040;28;20108;-77
2023/09/23 13:04:30;;;;;;;3.55;1.55;;;;;;;;;;5008334;28;20440;-67
2023/09/23 13:06:56;;;;;;;5.45;1.70;;;;;;;;;;5027989;28;20032;-68
2023/09/23 13:09:22;;;;;;;3.42;1.38;;;;;;;;;;5026823;28;20029;-68
2023/09/23 13:11:48;;;;;;;3.78;1.67;;;;;;;;;;5027893;28;20434;-68
2023/09/23 13:14:22;;;;;;;3.85;1.30;;;;;;;;;;5042707;28;20144;-68
2023/09/23 13:16:48;;;;;;;4.97;2.50;;;;;;;;;;5029270;28;20053;-70
2023/09/23 13:19:17;;;;;;;5.85;2.40;;;;;;;;;;5027164;28;20026;-70
2023/09/23 13:21:43;;;;;;;3.15;1.58;;;;;;;;;;5022024;28;20136;-69
2023/09/23 13:24:09;;;;;;;4.90;1.15;;;;;;;;;;5029086;28;20149;-69
2023/09/23 13:26:35;;;;;;;3.30;1.40;;;;;;;;;;5025870;28;20053;-69
2023/09/23 13:29:01;;;;;;;2.85;1.20;;;;;;;;;;5028649;28;20044;-77
2023/09/23 13:31:27;;;;;;;2.17;1.60;;;;;;;;;;5027425;28;20111;-69
2023/09/23 13:33:53;;;;;;;2.67;1.10;;;;;;;;;;5026848;28;20032;-63
2023/09/23 13:36:20;;;;;;;2.13;1.08;;;;;;;;;;5027695;28;20033;-65
2023/09/23 13:38:46;;;;;;;2.08;0.80;;;;;;;;;;5022168;28;20480;-63
2023/09/23 13:41:14;;;;;;;1.60;0.90;;;;;;;;;;5033307;28;20039;-61
2023/09/23 13:43:40;;;;;;;1.70;1.05;;;;;;;;;;5032497;28;20029;-61
2023/09/23 13:46:06;;;;;;;5.07;1.15;;;;;;;;;;5033758;28;20069;-59
2023/09/23 13:48:32;;;;;;;2.03;1.20;;;;;;;;;;5035048;28;20360;-60
2023/09/23 13:50:58;;;;;;;1.58;1.30;;;;;;;;;;5034771;28;20032;-61
2023/09/23 13:53:24;;;;;;;1.42;0.95;;;;;;;;;;5016261;28;20032;-61
2023/09/23 13:55:50;;;;;;;1.58;0.98;;;;;;;;;;5015916;28;20033;-61
2023/09/23 13:58:16;;;;;;;2.88;1.50;;;;;;;;;;5033205;28;20108;-61
2023/09/23 14:00:42;;;;;;;1.70;1.23;;;;;;;;;;5014180;28;20112;-61
2023/09/23 14:03:08;;;;;;;2.10;1.15;;;;;;;;;;5033388;28;20447;-61
2023/09/23 14:05:34;;;;;;;3.42;1.52;;;;;;;;;;5033269;28;20416;-61
2023/09/23 14:08:00;;;;;;;2.80;1.10;;;;;;;;;;5033637;28;20083;-61
2023/09/23 14:10:26;;;;;;;5.53;1.25;;;;;;;;;;5031548;28;20052;-61
2023/09/23 14:12:52;;;;;;;2.72;1.02;;;;;;;;;;5034042;28;20160;-60
2023/09/23 14:15:19;;;;;;;2.30;0.95;;;;;;;;;;5035495;28;20482;-61
2023/09/23 14:17:46;;;;;;;2.50;1.10;;;;;;;;;;5026932;28;20507;-61
2023/09/23 14:20:12;;;;;;;1.75;1.20;;;;;;;;;;5032658;28;20029;-61
2023/09/23 14:22:39;;;;;;;2.38;1.30;;;;;;;;;;5031997;28;20044;-64
2023/09/23 14:25:05;;;;;;;4.45;1.38;;;;;;;;;;5030545;28;20065;-63
2023/09/23 14:27:31;;;;;;;1.48;1.13;;;;;;;;;;5031310;28;20040;-60
2023/09/23 14:29:57;;;;;;;2.67;0.93;;;;;;;;;;5024192;28;20135;-60
2023/09/23 14:32:23;;;;;;;0.93;0.77;;;;;;;;;;5031757;28;20514;-61
2023/09/23 14:34:49;;;;;;;2.33;0.90;;;;;;;;;;5007815;28;20037;-61
2023/09/23 14:37:15;;;;;;;2.65;0.85;;;;;;;;;;5035475;28;20044;-63
2023/09/23 14:39:41;;;;;;;2.83;1.13;;;;;;;;;;5028377;28;20056;-58
2023/09/23 14:42:07;;;;;;;1.80;1.20;;;;;;;;;;5029205;28;22790;-63
2023/09/23 14:44:33;;;;;;;2.60;0.95;;;;;;;;;;5032283;28;20026;-54
2023/09/23 14:46:59;;;;;;;1.65;0.82;;;;;;;;;;5012325;28;20029;-63
2023/09/23 14:49:25;;;;;;;;;;;;;;;;;;5037481;28;20022;-62
2023/09/23 14:51:51;;;;;;;;;;;;;;;;;;5030921;28;19909;-66